Colorado Springs, CO (80951)

9:50 PM MDT on July 29, 2016 (GMT -0600)
Cimmaron Hills | | Change Station
Active Advisory: Severe Thunderstorm Watch Active Notice: Record Report

Elev 6545 ft 38.87 °N, 104.70 °W | Updated 2 seconds ago

Scattered Clouds
Scattered Clouds
65.3 °F
Feels Like 65.3 °F
N
0.0
Wind Variable Wind from NE
Gusts 0.0 mph

Today
High -- | Low -- °F
--% Chance of Precip.
Yesterday
High -- | Low -- °F
Precip. -- in
Pressure 29.99 in
Visibility 10.0 miles
Clouds Few 5000 ft
Scattered Clouds 20000 ft
Dew Point 60 °F
Humidity 84%
Rainfall 0.00 in
Snow Depth Not available.
5:57 AM 8:12 PM
Waning Crescent, 16% visible
METAR KCOS 300254Z 15006KT 10SM FEW050 SCT200 21/14 A3022 RMK AO2 SLP155 T02060139 51010
Pressure 29.99 in
Visibility 10.0 miles
Clouds Few 5000 ft
Scattered Clouds 20000 ft
Dew Point 60 °F
Humidity 84%
Rainfall 0.00 in
Snow Depth Not available.
5:57 AM 8:12 PM
Waning Crescent, 16% visible
METAR KCOS 300254Z 15006KT 10SM FEW050 SCT200 21/14 A3022 RMK AO2 SLP155 T02060139 51010

10-Day Weather Forecast

Almanac

Astronomy

Jul. 29, 2016 Rise Set
Actual Time
Civil Twilight
Nautical Twilight
Astronomical Twilight
Moon
Length of Visible Light
Length of Day
Tomorrow will be .
, % of the Moon is Illuminated

Today's Extremes

State Highs State Lows

Community

WunderPhotos

Upload Photos

1,928,500 photos uploaded!

WunderBlog® & News

Nearby

Air Quality

  Air Quality AQ Index Pollutant
Not available.

Snow Depth

Station Depth Elevation

Earthquake Activity

City Distance Mag. Time & Date
Minimum magnitude displayed is 2.5.

Coastal Water Temperatures

Place Temperature

Stations

Nearby Weather Stations

Station Location Temp. Windchill Dew Point Humidity Wind Precip. Elev Updated Type
                   

Watches & Warnings

Severe Thunderstorm Watch
Issued: 9:47 PM MDT Jul. 29, 2016 – National Weather Service


The National Weather Service will allow Severe Thunderstorm Watch
422 to expire at 10 PM MDT this evening for the following areas

In Colorado this allows to expire 1 County

In east central Colorado

El Paso

This includes the cities of... Colorado Springs and Peterson AFB.